Terminal Aerodrome Forecast
Issued by NWS

Home | Current Version | Previous Version | Text Only | Print | Product List | Glossary On
Versions: 1 2 3 4 5 6 7 8 9 10 11 12 13 14 15 16 17 18 19 20 21 22
000
FTUS43 KILX 202200 AAA
TAFBMI
TAF AMD
KBMI 202222Z 2022/2118 21010KT P6SM SCT050 OVC120
      TEMPO 2022/2024 P6SM -RA BKN050
     FM210000 18005KT P6SM BKN120
     FM210800 18005KT P6SM VCTS BKN050CB OVC120
     FM211400 22009KT P6SM SCT050 BKN120=

USA.gov is the U.S. government's official web portal to all federal, state and local government web resources and services.